Time;durP1;ratioP1;P1;durP2;ratioP2;P2;SDS_P1;SDS_P2;PMS_P1;PMS_P2;Temp;Humidity;BMP_temperature;BMP_pressure;BME280_temperature;BME280_humidity;BME280_pressure;Samples;Min_cycle;Max_cycle;Signal;HPM_P1;HPM_P2
2023/04/21 00:01:12;;;;;;;;;27.40;24.40;;;;;13.91;56.88;98912.50;5998292;29;96273;-63
2023/04/21 00:04:16;;;;;;;;;23.00;22.00;;;;;14.00;56.80;98911.88;5996687;29;97145;-63
2023/04/21 00:07:21;;;;;;;;;26.00;24.00;;;;;14.00;56.79;98906.44;5998548;29;96260;-63
2023/04/21 00:10:24;;;;;;;;;26.40;24.00;;;;;13.96;56.64;98907.19;5981210;29;96635;-63
2023/04/21 00:13:29;;;;;;;;;27.00;24.00;;;;;13.98;56.71;98905.03;5997427;29;96262;-63
2023/04/21 00:16:32;;;;;;;;;27.67;27.33;;;;;14.00;56.97;98906.44;5997251;29;96534;-63
2023/04/21 00:19:36;;;;;;;;;24.40;22.60;;;;;14.03;56.77;98905.94;5997084;29;97905;-63
2023/04/21 00:22:39;;;;;;;;;23.00;22.00;;;;;14.04;56.73;98904.88;5966328;29;98501;-63
2023/04/21 00:25:43;;;;;;;;;24.60;23.00;;;;;14.05;56.68;98906.53;5996166;29;96780;-63
2023/04/21 00:28:47;;;;;;;;;24.40;22.00;;;;;14.01;56.50;98902.66;5996783;29;96732;-63
2023/04/21 00:31:51;;;;;;;;;23.60;20.20;;;;;14.00;56.50;98901.03;5980851;29;98593;-63
2023/04/21 00:34:54;;;;;;;;;23.00;21.00;;;;;13.98;56.45;98900.44;5994329;29;96970;-64
2023/04/21 00:37:57;;;;;;;;;19.80;17.60;;;;;13.95;56.32;98903.63;5979555;29;98452;-63
2023/04/21 00:41:01;;;;;;;;;22.20;19.60;;;;;13.86;56.52;98889.66;5973782;29;96371;-63
2023/04/21 00:44:08;;;;;;;;;20.00;19.00;;;;;13.80;56.52;98885.22;5958042;29;96340;-63
2023/04/21 00:47:12;;;;;;;;;24.00;24.00;;;;;13.85;56.76;98893.44;5958546;29;96778;-63
2023/04/21 00:50:15;;;;;;;;;23.00;21.40;;;;;13.85;56.90;98884.47;5942040;29;97300;-63
2023/04/21 00:53:20;;;;;;;;;28.25;26.00;;;;;13.89;56.97;98902.72;5992117;29;97204;-63
2023/04/21 00:56:24;;;;;;;;;23.20;21.60;;;;;13.89;56.84;98888.34;5965410;29;96686;-64
2023/04/21 00:59:29;;;;;;;;;23.60;22.60;;;;;13.89;56.74;98896.47;5980634;29;96378;-63
2023/04/21 01:02:32;;;;;;;;;20.00;17.80;;;;;13.91;56.68;98893.53;5980499;29;96266;-63
2023/04/21 01:05:36;;;;;;;;;22.40;21.40;;;;;13.89;56.80;98888.34;5965311;29;97219;-63
2023/04/21 01:08:40;;;;;;;;;27.00;23.60;;;;;13.93;56.65;98886.00;5979284;29;96155;-63
2023/04/21 01:12:01;;;;;;;;;23.25;22.00;;;;;13.57;56.31;98828.41;5997504;29;96258;-63
2023/04/21 01:15:07;;;;;;;;;22.40;20.80;;;;;13.93;56.50;98891.41;5997481;29;96945;-63
2023/04/21 01:18:12;;;;;;;;;20.80;19.00;;;;;13.93;56.54;98891.41;5997555;29;96906;-63
2023/04/21 01:21:17;;;;;;;;;23.60;21.60;;;;;13.86;56.33;98891.53;5980112;29;96278;-63
2023/04/21 01:24:22;;;;;;;;;25.80;23.00;;;;;13.86;56.57;98892.38;5978977;29;96674;-63
2023/04/21 01:27:25;;;;;;;;;22.00;21.00;;;;;13.86;56.50;98889.66;5987245;29;96376;-63
2023/04/21 01:30:29;;;;;;;;;25.00;23.20;;;;;13.87;56.65;98894.03;5957155;29;96891;-63
2023/04/21 01:33:34;;;;;;;;;24.00;21.40;;;;;13.80;56.57;98876.25;5973851;29;96456;-63
2023/04/21 01:36:37;;;;;;;;;20.75;20.00;;;;;13.90;56.39;98892.69;5973749;29;96422;-63
2023/04/21 01:39:43;;;;;;;;;23.00;21.00;;;;;13.87;56.37;98885.91;5973862;29;97051;-63
2023/04/21 01:42:47;;;;;;;;;25.00;23.60;;;;;13.85;56.64;98890.72;5972862;29;96862;-63
2023/04/21 01:45:51;;;;;;;;;26.50;25.50;;;;;13.88;56.73;98892.94;5979879;29;96665;-63
2023/04/21 01:48:55;;;;;;;;;29.00;27.00;;;;;13.93;56.73;98883.28;5980212;29;96343;-63
2023/04/21 01:51:58;;;;;;;;;29.00;27.00;;;;;13.98;56.53;98886.88;5995676;29;96432;-63
2023/04/21 01:55:03;;;;;;;;;28.00;27.00;;;;;13.99;56.36;98887.69;5996206;29;96366;-63
2023/04/21 01:58:06;;;;;;;;;32.40;30.00;;;;;13.99;56.69;98882.28;5996592;29;96488;-63
2023/04/21 02:01:10;;;;;;;;;30.40;28.80;;;;;13.99;56.46;98887.69;5995448;29;96455;-63
2023/04/21 02:04:13;;;;;;;;;28.00;26.00;;;;;13.98;56.50;98880.63;5995147;29;96407;-63
2023/04/21 02:07:16;;;;;;;;;30.00;28.00;;;;;13.96;56.48;98891.75;5995857;29;96540;-63
2023/04/21 02:10:21;;;;;;;;;30.80;28.80;;;;;13.93;56.58;98891.41;5964214;29;98513;-63
2023/04/21 02:13:25;;;;;;;;;30.40;28.00;;;;;13.92;56.28;98897.88;5977823;29;96863;-63
2023/04/21 02:16:28;;;;;;;;;32.20;29.80;;;;;13.89;56.37;98896.47;5994090;29;96314;-63
2023/04/21 02:19:32;;;;;;;;;25.80;24.80;;;;;13.82;56.35;98898.53;5966519;29;96419;-63
2023/04/21 02:22:35;;;;;;;;;25.40;25.00;;;;;13.73;56.41;98902.69;5978987;29;96290;-63
2023/04/21 02:25:40;;;;;;;;;28.00;27.00;;;;;13.66;56.44;98894.69;5996265;29;96486;-63
2023/04/21 02:28:43;;;;;;;;;29.40;28.20;;;;;13.60;56.72;98901.06;5995230;29;96759;-63
2023/04/21 02:31:46;;;;;;;;;28.50;27.25;;;;;13.51;56.79;98901.69;5995976;29;96634;-64
2023/04/21 02:35:06;;;;;;;;;28.50;27.00;;;;;13.36;56.94;98899.47;5979502;29;96256;-64
2023/04/21 02:38:10;;;;;;;;;26.00;24.20;;;;;13.32;56.82;98904.56;5995544;29;96265;-64
2023/04/21 02:41:14;;;;;;;;;31.00;26.50;;;;;13.28;57.01;98895.28;5979248;29;96260;-64
2023/04/21 02:44:18;;;;;;;;;29.60;28.20;;;;;13.25;57.11;98898.44;5996121;29;96555;-64
2023/04/21 02:47:21;;;;;;;;;26.20;25.20;;;;;13.23;56.92;98897.88;5995993;29;97024;-64
2023/04/21 02:50:24;;;;;;;;;31.00;27.60;;;;;13.22;57.21;98900.81;5996039;29;96483;-64
2023/04/21 02:53:28;;;;;;;;;30.00;28.00;;;;;13.19;57.05;98890.47;5962765;29;97802;-63
2023/04/21 02:56:33;;;;;;;;;30.40;27.60;;;;;13.22;57.20;98895.41;5971707;29;96379;-63
2023/04/21 02:59:36;;;;;;;;;28.50;26.25;;;;;13.23;57.37;98905.19;5971813;29;96318;-64
2023/04/21 03:02:40;;;;;;;;;30.00;28.00;;;;;13.25;57.57;98901.16;5992119;29;97406;-64
2023/04/21 03:05:44;;;;;;;;;31.60;28.00;;;;;13.27;57.69;98898.22;5994168;29;97361;-64
2023/04/21 03:08:47;;;;;;;;;32.00;29.40;;;;;13.25;57.63;98893.03;5993199;29;97268;-63
2023/04/21 03:11:52;;;;;;;;;33.00;30.00;;;;;13.10;57.60;98867.47;5995823;29;96346;-64
2023/04/21 03:14:55;;;;;;;;;34.00;30.25;;;;;13.23;57.61;98889.75;5997447;29;96272;-63
2023/04/21 03:17:59;;;;;;;;;31.00;29.00;;;;;13.22;57.44;98898.09;5999271;29;96637;-63
2023/04/21 03:21:03;;;;;;;;;31.00;30.00;;;;;13.18;57.75;98886.13;5997860;29;96773;-63
2023/04/21 03:24:07;;;;;;;;;33.00;30.00;;;;;13.15;57.48;98890.09;5996782;29;96416;-63
2023/04/21 03:27:12;;;;;;;;;33.00;30.00;;;;;13.12;57.49;98903.31;5990270;29;97648;-63
2023/04/21 03:30:15;;;;;;;;;34.20;30.00;;;;;13.06;57.71;98893.38;5995493;29;96242;-63
2023/04/21 03:33:18;;;;;;;;;31.60;29.00;;;;;13.00;57.37;98904.09;5998713;29;96348;-63
2023/04/21 03:36:22;;;;;;;;;30.50;29.50;;;;;12.92;57.43;98903.66;5999297;29;96298;-64
2023/04/21 03:39:25;;;;;;;;;28.00;28.00;;;;;12.68;57.80;98883.88;5981885;29;98426;-64
2023/04/21 03:42:31;;;;;;;;;30.00;28.50;;;;;12.67;57.37;98901.16;5973406;29;98590;-63
2023/04/21 03:45:35;;;;;;;;;28.80;27.00;;;;;12.57;57.36;98898.22;5963024;29;96612;-63
2023/04/21 03:48:38;;;;;;;;;31.40;28.40;;;;;12.47;57.45;98897.97;5997550;29;96565;-64
2023/04/21 03:51:42;;;;;;;;;31.00;29.00;;;;;12.43;57.45;98899.50;5997945;29;96633;-64
2023/04/21 03:54:45;;;;;;;;;30.40;26.80;;;;;12.37;57.69;98908.53;5979659;29;96519;-63
2023/04/21 03:57:50;;;;;;;;;31.00;28.60;;;;;12.33;57.98;98905.47;5980511;29;98690;-63
2023/04/21 04:00:53;;;;;;;;;29.00;29.00;;;;;12.27;57.88;98911.00;5993489;29;96282;-62
2023/04/21 04:03:56;;;;;;;;;32.75;30.00;;;;;12.23;58.29;98920.63;5980870;29;96874;-63
2023/04/21 04:07:00;;;;;;;;;27.00;24.20;;;;;12.22;57.95;98914.38;5979688;29;96597;-63
2023/04/21 04:10:04;;;;;;;;;32.75;31.00;;;;;12.23;57.99;98920.63;5997993;29;96610;-63
2023/04/21 04:13:09;;;;;;;;;31.25;27.25;;;;;12.27;58.11;98922.63;5996298;29;96426;-63
2023/04/21 04:16:12;;;;;;;;;32.60;29.60;;;;;12.35;58.54;98927.72;5995884;29;97741;-63
2023/04/21 04:19:16;;;;;;;;;33.00;30.00;;;;;12.46;57.93;98920.69;5980249;29;98525;-63
2023/04/21 04:22:20;;;;;;;;;31.80;29.00;;;;;12.54;58.12;98923.88;5992614;29;96449;-63
2023/04/21 04:25:23;;;;;;;;;29.00;29.00;;;;;12.61;57.94;98936.47;5987701;29;96716;-64
2023/04/21 04:28:29;;;;;;;;;30.00;27.00;;;;;12.64;57.87;98934.09;5991617;29;96543;-64
2023/04/21 04:31:33;;;;;;;;;30.00;28.40;;;;;12.62;57.90;98929.97;5991764;29;96366;-64
2023/04/21 04:34:37;;;;;;;;;30.00;28.00;;;;;12.72;58.22;98936.47;5982393;29;96966;-63
2023/04/21 04:37:41;;;;;;;;;32.00;29.40;;;;;12.82;58.22;98936.69;5986854;29;97534;-63
2023/04/21 04:40:44;;;;;;;;;36.60;30.00;;;;;12.98;58.07;98938.72;5991279;29;97008;-63
2023/04/21 04:43:48;;;;;;;;;33.00;31.40;;;;;13.10;58.03;98940.56;5969001;29;98356;-63
2023/04/21 04:46:53;;;;;;;;;34.00;30.00;;;;;13.27;57.87;98955.06;5980106;29;96400;-63
2023/04/21 04:49:56;;;;;;;;;32.25;30.25;;;;;13.44;57.78;98948.69;5987413;29;96403;-63
2023/04/21 04:52:59;;;;;;;;;35.50;32.00;;;;;13.63;57.90;98953.97;5994736;29;96580;-63
2023/04/21 04:56:03;;;;;;;;;29.60;27.60;;;;;13.77;57.44;98958.88;5983651;29;96595;-63
2023/04/21 04:59:08;;;;;;;;;31.40;30.00;;;;;13.97;57.19;98952.19;5965972;29;98387;-62
2023/04/21 05:02:11;;;;;;;;;32.00;27.25;;;;;13.97;56.70;98933.22;5989079;29;97528;-63
2023/04/21 05:05:15;;;;;;;;;32.50;30.00;;;;;14.21;56.62;98959.16;5976905;29;97667;-63
2023/04/21 05:08:18;;;;;;;;;33.00;29.40;;;;;14.30;56.38;98949.56;5994689;29;96880;-63
2023/04/21 05:11:22;;;;;;;;;32.60;30.00;;;;;14.34;55.90;98956.13;5993797;29;96426;-63
2023/04/21 05:14:26;;;;;;;;;31.60;29.00;;;;;14.47;55.63;98957.72;5997066;29;96419;-63
2023/04/21 05:17:30;;;;;;;;;28.40;25.00;;;;;14.59;55.29;98956.59;5977356;29;97493;-63
2023/04/21 05:20:33;;;;;;;;;34.00;30.00;;;;;14.66;55.19;98948.31;5960176;29;96253;-63
2023/04/21 05:23:37;;;;;;;;;32.20;28.20;;;;;14.86;54.90;98964.91;5962695;29;98025;-63
2023/04/21 05:26:40;;;;;;;;;32.75;29.75;;;;;15.04;54.61;98956.50;5978907;29;96438;-63
2023/04/21 05:29:45;;;;;;;;;28.80;27.00;;;;;15.24;54.13;98958.72;5996840;29;96456;-63
2023/04/21 05:32:48;;;;;;;;;31.60;28.20;;;;;15.40;53.29;98965.16;5978501;29;98942;-63
2023/04/21 05:35:52;;;;;;;;;38.00;32.00;;;;;15.52;52.83;98958.56;5996991;29;96215;-64
2023/04/21 05:38:55;;;;;;;;;30.40;28.00;;;;;15.57;52.23;98960.53;5996732;29;96331;-63
2023/04/21 05:41:58;;;;;;;;;31.00;29.60;;;;;15.59;52.09;98964.63;5996736;29;96284;-64
2023/04/21 05:45:04;;;;;;;;;31.00;29.40;;;;;15.72;52.06;98960.72;5994955;29;96964;-63
2023/04/21 05:48:07;;;;;;;;;35.00;30.50;;;;;15.79;51.70;98964.06;5995173;29;96376;-64
2023/04/21 05:51:15;;;;;;;;;28.00;27.00;;;;;15.93;51.51;98962.59;5978351;29;97897;-64
2023/04/21 05:54:18;;;;;;;;;32.00;28.00;;;;;16.11;51.09;98956.03;5996207;29;96480;-64
2023/04/21 05:57:22;;;;;;;;;32.20;30.00;;;;;16.21;50.31;98956.13;5996017;29;97473;-64
2023/04/21 06:00:26;;;;;;;;;38.80;31.80;;;;;16.38;50.02;98956.81;5996125;29;96457;-64
2023/04/21 06:03:31;;;;;;;;;32.40;30.00;;;;;16.45;49.34;98945.75;5996655;29;96802;-64
2023/04/21 06:06:34;;;;;;;;;32.00;29.00;;;;;16.72;48.02;98954.72;5996238;29;96463;-64
2023/04/21 06:09:38;;;;;;;;;32.60;30.60;;;;;16.85;47.53;98951.56;5996894;29;96897;-64
2023/04/21 06:12:41;;;;;;;;;30.60;28.60;;;;;16.85;48.45;98957.03;5996458;29;96331;-64
2023/04/21 06:15:46;;;;;;;;;35.00;30.00;;;;;16.90;48.06;98948.06;5996188;29;96233;-64
2023/04/21 06:18:49;;;;;;;;;31.00;29.20;;;;;17.10;47.68;98961.00;5995343;29;96357;-64
2023/04/21 06:21:53;;;;;;;;;30.00;29.00;;;;;17.33;47.36;98949.69;5996095;29;96385;-64
2023/04/21 06:24:56;;;;;;;;;28.40;26.20;;;;;17.59;46.46;98951.50;5996086;29;96303;-64
2023/04/21 06:28:00;;;;;;;;;30.50;28.50;;;;;17.91;45.85;98959.53;5995354;29;96280;-64
2023/04/21 06:31:05;;;;;;;;;34.00;30.00;;;;;18.16;45.08;98953.34;5995820;29;96351;-63
2023/04/21 06:34:11;;;;;;;;;33.40;29.00;;;;;18.26;44.11;98950.66;5984420;29;96856;-64
2023/04/21 06:37:14;;;;;;;;;30.40;29.60;;;;;18.49;43.89;98958.31;5978221;29;96723;-64
2023/04/21 06:40:18;;;;;;;;;31.33;30.00;;;;;18.65;42.68;98952.91;5995597;29;96385;-64
2023/04/21 06:43:21;;;;;;;;;30.20;28.60;;;;;18.89;42.75;98949.34;5995855;29;96491;-63
2023/04/21 06:46:26;;;;;;;;;35.40;31.00;;;;;19.14;42.13;98948.50;5995943;29;96893;-64
2023/04/21 06:49:29;;;;;;;;;35.50;30.50;;;;;19.39;41.60;98931.25;5997673;29;96276;-64
2023/04/21 06:52:32;;;;;;;;;31.00;27.00;;;;;19.92;40.84;98951.56;5999948;29;96395;-63
2023/04/21 06:55:36;;;;;;;;;27.00;25.00;;;;;20.30;39.49;98941.78;6000043;29;96414;-64
2023/04/21 06:58:39;;;;;;;;;25.00;23.25;;;;;20.53;37.19;98945.75;5982579;29;98537;-64
2023/04/21 07:01:44;;;;;;;;;26.20;23.20;;;;;20.64;37.66;98948.13;5999426;29;97777;-64
2023/04/21 07:04:47;;;;;;;;;27.40;24.40;;;;;20.89;36.67;98947.13;5999542;29;97502;-64
2023/04/21 07:07:50;;;;;;;;;27.80;25.00;;;;;21.09;36.61;98946.13;5999517;29;96169;-64
2023/04/21 07:10:54;;;;;;;;;31.00;25.75;;;;;21.25;36.59;98942.16;5999501;29;96323;-64
2023/04/21 07:14:00;;;;;;;;;24.00;22.00;;;;;21.48;35.98;98938.63;5999654;29;96358;-64
2023/04/21 07:17:04;;;;;;;;;25.60;23.60;;;;;21.83;34.91;98942.03;5999603;29;96369;-64
2023/04/21 07:20:09;;;;;;;;;22.50;21.75;;;;;21.98;33.34;98941.88;5999315;29;96775;-63
2023/04/21 07:23:12;;;;;;;;;27.00;24.40;;;;;22.13;33.63;98938.94;5999064;29;96416;-64
2023/04/21 07:26:16;;;;;;;;;23.20;22.20;;;;;22.46;34.17;98937.06;5999126;29;96375;-64
2023/04/21 07:29:20;;;;;;;;;27.00;24.00;;;;;22.72;33.31;98940.28;5999391;29;96254;-63
2023/04/21 07:32:25;;;;;;;;;21.00;20.00;;;;;22.96;32.37;98935.47;5998722;29;96388;-63
2023/04/21 07:35:28;;;;;;;;;22.40;21.00;;;;;23.27;31.86;98946.72;5998549;29;97607;-64
2023/04/21 07:38:32;;;;;;;;;28.00;25.67;;;;;23.42;31.58;98943.69;5998448;29;96283;-64
2023/04/21 07:41:36;;;;;;;;;25.60;23.00;;;;;23.63;30.93;98938.63;5996241;29;96383;-64
2023/04/21 07:44:40;;;;;;;;;26.60;24.00;;;;;23.78;31.39;98935.59;5997491;29;96276;-64
2023/04/21 07:47:45;;;;;;;;;27.50;22.50;;;;;23.77;30.36;98917.44;5997158;29;96470;-64
2023/04/21 07:50:49;;;;;;;;;25.00;21.60;;;;;24.10;31.21;98940.13;5996507;29;97129;-64
2023/04/21 07:53:52;;;;;;;;;23.40;22.40;;;;;24.16;30.18;98922.38;5996502;29;96271;-64
2023/04/21 07:56:55;;;;;;;;;22.40;21.00;;;;;24.50;30.85;98935.66;5997197;29;97560;-64
2023/04/21 07:59:59;;;;;;;;;21.20;20.00;;;;;24.77;30.24;98929.25;5997832;29;96828;-63
2023/04/21 08:03:03;;;;;;;;;25.00;22.00;;;;;24.96;30.06;98936.22;5997030;29;96281;-64
2023/04/21 08:06:07;;;;;;;;;23.20;21.80;;;;;25.05;28.95;98930.75;5995140;29;96924;-64
2023/04/21 08:09:11;;;;;;;;;23.00;22.00;;;;;25.14;29.19;98931.59;5997834;29;96263;-64
2023/04/21 08:12:14;;;;;;;;;29.80;24.60;;;;;25.44;29.63;98928.03;5998195;29;96293;-62
2023/04/21 08:15:18;;;;;;;;;22.25;21.00;;;;;25.50;28.42;98933.41;5998003;29;96451;-62
2023/04/21 08:18:23;;;;;;;;;23.00;20.00;;;;;25.72;28.83;98930.59;5995980;29;96310;-62
2023/04/21 08:21:27;;;;;;;;;21.80;21.40;;;;;26.01;28.36;98922.53;5979076;29;99799;-62
2023/04/21 08:24:33;;;;;;;;;16.33;16.33;;;;;26.22;28.15;98936.59;5980013;29;98386;-62
2023/04/21 08:27:38;;;;;;;;;23.67;21.67;;;;;26.42;28.30;98924.91;5995223;29;96621;-62
2023/04/21 08:30:42;;;;;;;;;20.00;19.60;;;;;26.57;28.55;98907.84;5996593;29;96543;-62
2023/04/21 08:33:47;;;;;;;;;22.25;20.75;;;;;26.68;28.01;98911.09;5980650;29;97767;-62
2023/04/21 08:37:03;;;;;;;;;21.80;19.00;;;;;26.80;26.19;98914.00;5997339;29;96280;-62
2023/04/21 08:40:08;;;;;;;;;23.80;22.40;;;;;26.57;26.03;98907.84;5997663;29;96330;-62
2023/04/21 08:43:12;;;;;;;;;21.25;20.25;;;;;26.37;26.02;98914.00;5997464;29;96436;-62
2023/04/21 08:46:16;;;;;;;;;20.00;19.00;;;;;26.55;27.55;98907.34;5997550;29;96447;-62
2023/04/21 08:49:21;;;;;;;;;18.80;17.00;;;;;26.92;26.32;98907.84;5996678;29;96358;-62
2023/04/21 08:52:25;;;;;;;;;19.00;18.40;;;;;27.25;25.88;98902.53;5997927;29;96744;-62
2023/04/21 08:55:30;;;;;;;;;17.00;16.20;;;;;27.61;24.81;98902.91;5981055;29;97147;-63
2023/04/21 08:58:33;;;;;;;;;17.60;16.60;;;;;27.91;25.46;98893.44;5997581;29;97354;-63
2023/04/21 09:02:07;;;;;;;;;20.60;19.60;;;;;28.35;24.78;98903.09;5997470;29;96277;-63
2023/04/21 09:05:22;;;;;;;;;20.00;20.00;;;;;28.22;24.32;98901.41;5997487;29;97063;-63
2023/04/21 09:08:28;;;;;;;;;18.40;17.00;;;;;28.27;23.53;98903.16;5964627;29;98570;-63
2023/04/21 09:11:33;;;;;;;;;17.80;17.00;;;;;28.35;23.60;98899.50;5996523;29;97098;-62
2023/04/21 09:14:36;;;;;;;;;21.50;19.75;;;;;28.22;24.33;98878.41;5996964;29;96539;-63
2023/04/21 09:17:40;;;;;;;;;22.00;19.20;;;;;28.29;23.17;98887.00;5996620;29;96327;-63
2023/04/21 09:20:47;;;;;;;;;19.00;18.40;;;;;28.54;23.69;98882.41;5979688;29;96418;-63
2023/04/21 09:23:54;;;;;;;;;22.00;19.20;;;;;28.76;23.19;98888.41;5994921;29;96771;-63
2023/04/21 09:26:57;;;;;;;;;17.00;17.00;;;;;29.05;22.46;98894.97;5997378;29;96884;-63
2023/04/21 09:30:03;;;;;;;;;19.00;17.75;;;;;29.24;22.25;98887.72;5996703;29;96404;-62
2023/04/21 09:33:07;;;;;;;;;17.60;16.40;;;;;29.40;21.35;98882.34;5996873;29;96349;-62
2023/04/21 09:36:30;;;;;;;;;19.00;18.00;;;;;29.47;20.93;98890.09;5997198;29;96459;-63
2023/04/21 09:39:34;;;;;;;;;18.00;17.60;;;;;29.63;20.79;98880.72;5996531;29;96386;-62
2023/04/21 09:42:55;;;;;;;;;17.50;17.00;;;;;29.76;21.70;98870.44;5994512;29;96660;-62
2023/04/21 09:46:01;;;;;;;;;19.20;16.60;;;;;29.93;20.85;98875.75;5995501;29;96913;-62
2023/04/21 09:49:05;;;;;;;;;18.50;16.00;;;;;29.79;19.79;98871.69;5997016;29;96375;-63
2023/04/21 09:52:11;;;;;;;;;15.25;14.00;;;;;29.20;17.95;98881.25;5996638;29;97558;-63
2023/04/21 09:55:25;;;;;;;;;15.00;13.80;;;;;28.83;19.14;98874.78;5996900;29;96416;-62
2023/04/21 09:58:35;;;;;;;;;15.00;15.00;;;;;28.39;19.74;98872.75;5964596;29;98378;-63
2023/04/21 10:01:40;;;;;;;;;14.00;13.00;;;;;27.93;19.53;98862.63;5996743;29;96640;-62
2023/04/21 10:04:44;;;;;;;;;14.00;13.00;;;;;27.20;19.75;98859.22;5996410;29;96427;-62
2023/04/21 10:07:50;;;;;;;;;15.20;14.00;;;;;26.88;19.57;98857.06;5995969;29;96794;-63
2023/04/21 10:10:53;;;;;;;;;14.00;13.00;;;;;27.17;19.84;98852.38;5979013;29;98447;-63
2023/04/21 10:13:57;;;;;;;;;12.60;12.40;;;;;27.17;19.90;98854.38;5994744;29;96493;-63
2023/04/21 10:17:04;;;;;;;;;10.50;10.00;;;;;27.11;18.78;98859.28;5996310;29;96438;-62
2023/04/21 10:20:09;;;;;;;;;9.00;9.00;;;;;26.92;18.49;98845.00;5996337;29;96834;-63
2023/04/21 10:23:26;;;;;;;;;12.00;11.25;;;;;27.00;18.78;98851.66;5995937;29;96476;-62
2023/04/21 10:26:34;;;;;;;;;10.00;9.20;;;;;26.69;19.87;98851.84;5982987;29;98528;-63
2023/04/21 10:29:38;;;;;;;;;13.00;12.25;;;;;26.17;19.57;98840.81;6000486;29;96249;-62
2023/04/21 10:33:03;;;;;;;;;11.00;10.00;;;;;26.32;19.65;98842.31;5983324;29;97165;-63
2023/04/21 10:36:06;;;;;;;;;12.00;10.00;;;;;26.86;21.27;98839.94;6000360;29;96488;-62
2023/04/21 10:39:14;;;;;;;;;10.40;8.40;;;;;27.24;20.57;98840.81;5983605;29;96386;-62
2023/04/21 10:42:21;;;;;;;;;8.00;8.00;;;;;27.29;18.96;98848.94;6000267;29;96115;-63
2023/04/21 10:45:25;;;;;;;;;10.00;10.00;;;;;27.68;19.37;98844.19;5999093;29;96243;-62
2023/04/21 10:48:29;;;;;;;;;12.00;11.00;;;;;28.06;19.16;98839.38;5990981;29;96384;-62
2023/04/21 10:51:32;;;;;;;;;12.00;11.75;;;;;28.44;19.23;98836.47;5976193;29;96274;-62
2023/04/21 10:54:42;;;;;;;;;12.00;11.00;;;;;28.62;19.60;98820.47;5963156;29;96561;-62
2023/04/21 10:57:46;;;;;;;;;9.25;9.00;;;;;29.00;17.88;98825.78;5984202;29;96523;-62
2023/04/21 11:00:54;;;;;;;;;8.60;8.60;;;;;28.69;17.47;98835.41;5963729;29;99640;-62
2023/04/21 11:03:58;;;;;;;;;10.00;9.00;;;;;28.24;17.39;98834.53;5994194;29;96488;-62
2023/04/21 11:07:06;;;;;;;;;10.00;10.00;;;;;27.74;18.02;98834.56;5967715;29;97832;-62
2023/04/21 11:10:11;;;;;;;;;12.60;11.00;;;;;27.68;19.11;98838.66;5988628;29;96298;-62
2023/04/21 11:13:15;;;;;;;;;13.00;11.80;;;;;27.51;17.77;98825.75;5985200;29;96576;-62
2023/04/21 11:16:20;;;;;;;;;11.00;10.40;;;;;27.54;19.07;98823.09;5982333;29;96826;-63
2023/04/21 11:19:24;;;;;;;;;15.60;14.00;;;;;27.73;19.07;98819.06;5968395;29;96495;-63
2023/04/21 11:22:28;;;;;;;;;13.80;12.80;;;;;27.72;19.84;98817.44;5972057;29;96669;-63
2023/04/21 11:25:32;;;;;;;;;14.00;11.80;;;;;27.77;20.02;98811.72;5996751;29;96501;-63
2023/04/21 11:28:36;;;;;;;;;9.50;9.50;;;;;27.73;19.34;98819.06;5988335;29;96344;-63
2023/04/21 11:31:42;;;;;;;;;12.60;12.00;;;;;27.75;19.29;98817.59;5975305;29;96305;-63
2023/04/21 11:34:46;;;;;;;;;10.00;10.00;;;;;27.52;19.97;98794.94;5980174;29;96150;-63
2023/04/21 11:37:50;;;;;;;;;10.00;9.60;;;;;27.85;20.52;98808.91;5985462;29;96572;-62
2023/04/21 11:40:55;;;;;;;;;12.00;11.00;;;;;27.93;21.10;98793.34;5986670;29;96271;-63
2023/04/21 11:43:58;;;;;;;;;12.40;11.40;;;;;28.06;20.07;98813.59;5997286;29;96334;-63
2023/04/21 11:47:12;;;;;;;;;10.60;10.60;;;;;27.83;20.10;98813.13;5997048;29;96535;-62
2023/04/21 11:50:32;;;;;;;;;9.00;9.00;;;;;27.84;20.18;98806.47;5961676;29;98410;-63
2023/04/21 11:53:36;;;;;;;;;13.00;12.00;;;;;27.91;19.97;98803.94;5956819;29;96651;-64
2023/04/21 11:56:43;;;;;;;;;13.80;12.80;;;;;28.15;20.78;98811.63;5993124;29;96422;-63
2023/04/21 11:59:47;;;;;;;;;10.60;9.80;;;;;28.54;19.37;98797.19;5997774;29;96369;-63
2023/04/21 12:02:55;;;;;;;;;13.00;12.00;;;;;28.82;19.62;98795.47;5997556;29;96572;-63
2023/04/21 12:05:59;;;;;;;;;12.00;11.00;;;;;29.01;18.19;98796.88;5981241;29;96677;-63
2023/04/21 12:09:02;;;;;;;;;12.00;9.25;;;;;28.91;18.44;98773.16;5997988;29;96407;-63
2023/04/21 12:12:09;;;;;;;;;10.20;10.20;;;;;28.75;18.54;98786.09;5963198;29;96638;-61
2023/04/21 12:15:17;;;;;;;;;10.00;9.00;;;;;28.25;17.60;98772.38;5998930;29;96253;-61
2023/04/21 12:18:21;;;;;;;;;11.00;10.00;;;;;28.42;18.73;98788.88;5974999;29;97073;-61
2023/04/21 12:21:28;;;;;;;;;8.00;7.00;;;;;28.46;18.62;98775.94;5981260;29;96333;-61
2023/04/21 12:24:31;;;;;;;;;11.25;11.00;;;;;28.68;18.28;98766.41;5981534;29;96723;-61
2023/04/21 12:27:48;;;;;;;;;9.00;9.00;;;;;28.71;18.08;98765.72;5974239;29;96877;-61
2023/04/21 12:30:51;;;;;;;;;10.00;10.00;;;;;28.48;18.14;98773.63;5991260;29;96379;-61
2023/04/21 12:33:54;;;;;;;;;8.40;8.00;;;;;28.33;18.06;98766.78;5997750;29;96387;-61
2023/04/21 12:36:58;;;;;;;;;8.00;7.40;;;;;28.35;18.33;98764.44;5998236;29;96483;-61
2023/04/21 12:40:01;;;;;;;;;9.80;8.80;;;;;28.35;18.03;98758.09;5997913;29;96543;-62
2023/04/21 12:43:06;;;;;;;;;8.00;8.00;;;;;28.54;18.33;98747.28;5981089;29;96827;-61
2023/04/21 12:46:10;;;;;;;;;7.80;7.80;;;;;28.84;17.39;98745.16;5994792;29;97258;-61
2023/04/21 12:49:14;;;;;;;;;8.40;8.00;;;;;28.97;16.95;98743.22;5997491;29;96482;-61
2023/04/21 12:52:17;;;;;;;;;6.20;6.20;;;;;29.00;16.82;98745.31;5996306;29;96395;-61
2023/04/21 12:55:21;;;;;;;;;7.75;7.75;;;;;28.91;17.38;98745.41;5980569;29;98763;-61
2023/04/21 12:58:26;;;;;;;;;9.40;8.00;;;;;28.66;17.45;98738.19;5997732;29;96484;-61
2023/04/21 13:01:29;;;;;;;;;9.40;9.40;;;;;28.37;16.42;98731.66;5997562;29;97128;-61
2023/04/21 13:04:33;;;;;;;;;9.75;9.50;;;;;28.34;17.55;98746.22;5980936;29;98416;-61
2023/04/21 13:07:37;;;;;;;;;7.00;7.00;;;;;28.26;17.63;98744.31;5981194;29;96716;-61
2023/04/21 13:10:40;;;;;;;;;8.50;8.00;;;;;28.21;17.65;98741.75;5996297;29;96540;-61
2023/04/21 13:13:44;;;;;;;;;13.00;12.00;;;;;27.95;16.58;98738.41;5988892;29;96549;-61
2023/04/21 13:16:48;;;;;;;;;8.80;8.20;;;;;27.95;16.60;98730.09;5979895;29;97030;-61
2023/04/21 13:19:51;;;;;;;;;9.60;8.40;;;;;27.94;17.38;98728.47;5996552;29;96404;-61
2023/04/21 13:22:55;;;;;;;;;8.60;8.00;;;;;27.54;16.43;98723.41;5997021;29;96390;-61
2023/04/21 13:25:59;;;;;;;;;6.80;6.20;;;;;27.55;17.94;98715.91;5995750;29;96566;-61
2023/04/21 13:29:04;;;;;;;;;8.50;8.50;;;;;27.57;16.77;98724.69;5995147;29;96509;-61
2023/04/21 13:32:08;;;;;;;;;8.00;8.00;;;;;27.91;18.14;98726.34;5972447;29;96120;-61
2023/04/21 13:35:11;;;;;;;;;8.00;8.00;;;;;27.88;17.29;98719.56;5973024;29;96972;-61
2023/04/21 13:38:14;;;;;;;;;7.00;6.00;;;;;27.96;17.54;98715.88;5986614;29;96361;-61
2023/04/21 13:41:18;;;;;;;;;8.00;7.00;;;;;28.16;18.51;98717.03;5948291;29;98625;-61
2023/04/21 13:44:23;;;;;;;;;7.50;7.00;;;;;28.16;16.95;98702.34;5979304;29;96500;-61
2023/04/21 13:47:26;;;;;;;;;11.00;9.50;;;;;28.13;17.66;98703.06;5994875;29;96902;-61
2023/04/21 13:50:30;;;;;;;;;8.60;8.60;;;;;28.26;17.21;98705.50;5996103;29;96721;-61
2023/04/21 13:53:33;;;;;;;;;9.80;9.00;;;;;28.24;17.22;98699.50;5996012;29;96681;-61
2023/04/21 13:56:37;;;;;;;;;10.00;10.00;;;;;28.32;17.26;98703.34;5975641;29;97046;-61
2023/04/21 13:59:42;;;;;;;;;10.40;10.00;;;;;27.83;16.24;98699.56;5983481;29;96695;-61
2023/04/21 14:02:45;;;;;;;;;9.00;9.00;;;;;27.57;17.50;98703.34;5995676;29;96706;-61
2023/04/21 14:05:48;;;;;;;;;8.50;8.50;;;;;27.24;17.15;98699.66;5968440;29;96782;-61
2023/04/21 14:08:53;;;;;;;;;8.25;8.00;;;;;27.23;17.37;98692.47;5987708;29;96874;-61
2023/04/21 14:11:57;;;;;;;;;6.00;6.00;;;;;27.29;16.90;98691.16;5994017;29;96613;-61